CST,Max TemperatureF,Mean TemperatureF,Min TemperatureF,Max Dew PointF,MeanDew PointF,Min DewpointF,Max Humidity, Mean Humidity, Min Humidity, Max Sea Level PressureIn, Mean Sea Level PressureIn, Min Sea Level PressureIn, Max VisibilityMiles, Mean VisibilityMiles, Min VisibilityMiles, Max Wind SpeedMPH, Mean Wind SpeedMPH, Max Gust SpeedMPH,PrecipitationIn, CloudCover, Events, WindDirDegrees
2014-2-1,36,31,26,23,21,19,88,70,55,30.22,30.00,29.82,10,10,8,22,15,29,0.00,3,,7
2014-2-2,35,27,19,20,16,11,93,71,40,30.36,30.25,30.17,10,7,1,25,19,32,0.00,7,Snow,20
2014-2-3,32,28,25,29,20,12,100,73,51,30.29,30.15,30.01,10,8,1,13,7,,0.01,8,Rain,132
2014-2-4,33,28,21,31,28,17,100,91,78,30.28,29.95,29.84,10,4,0,25,9,33,0.09,8,Fog-Rain-Snow,54
2014-2-5,18,12,6,12,3,0,79,74,70,30.67,30.56,30.30,10,8,2,30,23,38,0.00,4,Snow,1
2014-2-6,12,8,5,5,2,0,85,79,70,30.67,30.55,30.37,10,6,2,18,15,,0.00,7,Snow,33
2014-2-7,24,16,9,21,13,5,100,86,79,30.42,30.25,30.07,10,8,4,16,8,,0.00,8,,139
2014-2-8,28,24,21,28,26,20,100,96,92,30.13,30.06,29.98,5,1,0,22,9,26,0.00,8,Fog-Rain,173
2014-2-9,30,26,21,28,26,20,100,94,91,30.31,30.16,30.07,4,2,0,21,13,24,0.00,8,Fog,31
2014-2-10,21,18,15,19,15,12,100,88,79,30.42,30.35,30.24,10,5,2,21,16,,0.00,8,Snow,16
2014-2-11,30,22,14,22,16,11,88,82,69,30.45,30.35,30.24,10,10,8,20,13,,0.00,6,,28
2014-2-12,48,34,19,31,23,16,96,74,42,30.22,30.15,30.02,10,9,6,17,9,,0.00,0,,291
2014-2-13,64,46,28,35,30,24,92,63,27,30.00,29.91,29.77,10,10,8,17,9,,0.00,0,,206
2014-2-14,61,48,36,35,27,19,77,49,21,30.11,29.95,29.66,10,10,10,26,13,36,0.00,0,,338
2014-2-15,64,48,33,34,28,24,73,53,26,30.10,30.02,29.89,10,10,10,34,12,39,0.00,0,,189
2014-2-16,68,50,33,43,36,29,85,61,36,30.09,29.94,29.74,10,10,10,18,12,24,0.00,0,,123
2014-2-17,63,51,39,39,25,17,63,34,18,30.17,30.06,29.75,10,10,10,29,17,38,0.00,0,,302
2014-2-18,77,56,35,33,25,21,64,35,15,30.08,29.91,29.77,10,10,10,31,15,39,0.00,0,,206
2014-2-19,61,53,45,56,38,23,96,57,33,29.95,29.73,29.46,10,9,6,20,14,,0.00,2,,131
2014-2-20,57,45,33,55,25,8,93,46,15,30.12,29.82,29.41,10,10,5,38,21,52,0.00,1,,306
2014-2-21,66,44,23,20,12,4,65,30,9,30.12,30.00,29.90,10,10,10,30,11,36,0.00,0,,214
2014-2-22,68,52,36,27,22,16,65,38,14,29.90,29.85,29.80,10,10,10,18,12,,0.00,0,,105
2014-2-23,51,40,28,29,24,20,82,58,32,30.24,30.09,29.86,10,10,10,28,15,34,0.00,1,,20
2014-2-24,50,36,21,36,26,17,85,70,56,30.26,30.16,30.05,10,10,10,12,8,,0.00,2,,94
2014-2-25,41,34,25,29,22,16,93,66,41,30.42,30.23,30.16,10,9,6,29,14,37,0.00,4,,17
2014-2-26,37,26,16,13,10,6,71,54,33,30.44,30.31,30.16,10,10,10,22,14,34,0.00,1,,331
2014-2-27,55,40,24,26,19,11,60,44,28,30.15,29.95,29.69,10,10,10,22,14,29,0.00,0,,192
2014-2-28,66,52,37,38,33,24,80,56,30,29.89,29.68,29.56,10,10,9,23,13,32,0.00,0,,101